createdAt,value
2022-10-03T00:00:46.479Z,979.65
2022-10-03T00:01:46.598Z,979.65
2022-10-03T00:02:46.510Z,979.66
2022-10-03T00:03:46.448Z,979.69
2022-10-03T00:04:46.439Z,979.67
2022-10-03T00:05:46.445Z,979.66
2022-10-03T00:06:46.419Z,979.64
2022-10-03T00:07:46.406Z,979.66
2022-10-03T00:08:46.403Z,979.70
2022-10-03T00:09:46.388Z,979.73
2022-10-03T00:10:46.482Z,979.77
2022-10-03T00:11:46.368Z,979.71
2022-10-03T00:12:46.360Z,979.74
2022-10-03T00:13:46.347Z,979.73
2022-10-03T00:14:46.340Z,979.73
2022-10-03T00:15:46.421Z,979.72
2022-10-03T00:16:46.321Z,979.72
2022-10-03T00:17:46.309Z,979.70
2022-10-03T00:18:46.304Z,979.70
2022-10-03T00:19:46.287Z,979.72
2022-10-03T00:20:46.283Z,979.71
2022-10-03T00:21:46.287Z,979.72
2022-10-03T00:22:46.260Z,979.70
2022-10-03T00:23:46.247Z,979.76
2022-10-03T00:24:46.238Z,979.77
2022-10-03T00:25:46.230Z,979.83
2022-10-03T00:26:46.221Z,979.82
2022-10-03T00:27:46.208Z,979.85
2022-10-03T00:28:46.206Z,979.88
2022-10-03T00:29:46.191Z,979.91
2022-10-03T00:30:46.195Z,979.91
2022-10-03T00:31:46.255Z,979.93
2022-10-03T00:32:46.163Z,979.88
2022-10-03T00:33:46.148Z,979.93
2022-10-03T00:34:46.141Z,979.96
2022-10-03T00:35:46.129Z,979.96
2022-10-03T00:36:46.120Z,979.99
2022-10-03T00:37:46.135Z,979.98
2022-10-03T00:38:46.101Z,979.97
2022-10-03T00:39:46.090Z,979.99
2022-10-03T00:40:46.083Z,979.98
2022-10-03T00:41:46.071Z,979.99
2022-10-03T00:42:46.062Z,979.92
2022-10-03T00:43:46.049Z,979.98
2022-10-03T00:44:46.043Z,979.98
2022-10-03T00:45:46.033Z,980.00
2022-10-03T00:46:46.096Z,979.99
2022-10-03T00:47:46.011Z,980.03
2022-10-03T00:48:46.002Z,980.03
2022-10-03T00:49:45.991Z,980.04
2022-10-03T00:50:45.985Z,980.05
2022-10-03T00:51:45.974Z,980.08
2022-10-03T00:52:45.965Z,980.14
2022-10-03T00:53:45.980Z,980.12
2022-10-03T00:54:45.946Z,980.12
2022-10-03T00:55:45.931Z,980.13
2022-10-03T00:56:45.931Z,980.15
2022-10-03T00:57:45.914Z,980.11
2022-10-03T00:58:45.906Z,980.10
2022-10-03T00:59:48.078Z,980.09
2022-10-03T01:00:45.983Z,980.13
2022-10-03T01:01:45.988Z,980.15
2022-10-03T01:02:45.922Z,980.12
2022-10-03T01:03:45.853Z,980.09
2022-10-03T01:04:45.846Z,980.12
2022-10-03T01:05:45.835Z,980.13
2022-10-03T01:06:45.827Z,980.16
2022-10-03T01:07:45.815Z,980.17
2022-10-03T01:08:45.809Z,980.16
2022-10-03T01:09:45.813Z,980.17
2022-10-03T01:10:45.788Z,980.14
2022-10-03T01:11:45.775Z,980.17
2022-10-03T01:12:45.768Z,980.22
2022-10-03T01:13:45.756Z,980.23
2022-10-03T01:14:45.749Z,980.29
2022-10-03T01:15:45.761Z,980.26
2022-10-03T01:16:45.728Z,980.30
2022-10-03T01:17:45.716Z,980.27
2022-10-03T01:18:45.709Z,980.32
2022-10-03T01:19:45.699Z,980.34
2022-10-03T01:20:45.787Z,980.32
2022-10-03T01:21:45.676Z,980.35
2022-10-03T01:22:45.669Z,980.34
2022-10-03T01:23:45.657Z,980.41
2022-10-03T01:24:45.648Z,980.35
2022-10-03T01:25:45.657Z,980.39
2022-10-03T01:26:45.629Z,980.33
2022-10-03T01:27:45.615Z,980.37
2022-10-03T01:28:45.608Z,980.37
2022-10-03T01:29:45.597Z,980.33
2022-10-03T01:30:45.588Z,980.40
2022-10-03T01:31:45.607Z,980.35
2022-10-03T01:32:45.567Z,980.33
2022-10-03T01:33:45.565Z,980.39
2022-10-03T01:34:45.550Z,980.37
2022-10-03T01:35:45.534Z,980.36
2022-10-03T01:36:45.527Z,980.36
2022-10-03T01:37:45.516Z,980.34
2022-10-03T01:38:45.534Z,980.36
2022-10-03T01:39:45.493Z,980.39
2022-10-03T01:40:45.485Z,980.39
2022-10-03T01:41:45.494Z,980.43
2022-10-03T01:42:45.464Z,980.45
2022-10-03T01:43:45.451Z,980.47
2022-10-03T01:44:45.443Z,980.53
2022-10-03T01:45:45.431Z,980.52
2022-10-03T01:46:45.479Z,980.54
2022-10-03T01:47:45.409Z,980.56
2022-10-03T01:48:45.401Z,980.60
2022-10-03T01:49:45.390Z,980.62
2022-10-03T01:50:45.382Z,980.58
2022-10-03T01:51:45.368Z,980.67
2022-10-03T01:52:45.361Z,980.66
2022-10-03T01:53:45.349Z,980.67
2022-10-03T01:54:45.342Z,980.64
2022-10-03T01:55:45.327Z,980.68
2022-10-03T01:56:45.322Z,980.67
2022-10-03T01:57:45.328Z,980.60
2022-10-03T01:58:45.301Z,980.58
2022-10-03T01:59:45.288Z,980.56
2022-10-03T02:00:45.326Z,980.56
2022-10-03T02:01:45.296Z,980.52
2022-10-03T02:02:45.261Z,980.52
2022-10-03T02:03:45.246Z,980.51
2022-10-03T02:04:45.240Z,980.49
2022-10-03T02:05:45.227Z,980.52
2022-10-03T02:06:45.218Z,980.53
2022-10-03T02:07:45.206Z,980.54
2022-10-03T02:08:45.199Z,980.57
2022-10-03T02:09:45.187Z,980.60
2022-10-03T02:10:45.179Z,980.62
2022-10-03T02:11:45.172Z,980.60
2022-10-03T02:12:45.159Z,980.65
2022-10-03T02:13:45.263Z,980.67
2022-10-03T02:14:45.138Z,980.68
2022-10-03T02:15:45.219Z,980.74
2022-10-03T02:16:45.118Z,980.77
2022-10-03T02:17:45.105Z,980.76
2022-10-03T02:18:45.096Z,980.77
2022-10-03T02:19:45.084Z,980.77
2022-10-03T02:20:45.077Z,980.80
2022-10-03T02:21:45.064Z,980.79
2022-10-03T02:22:45.059Z,980.84
2022-10-03T02:23:45.045Z,980.82
2022-10-03T02:24:45.036Z,980.82
2022-10-03T02:25:45.023Z,980.81
2022-10-03T02:26:45.020Z,980.82
2022-10-03T02:27:45.003Z,980.78
2022-10-03T02:28:44.996Z,980.79
2022-10-03T02:29:45.003Z,980.79
2022-10-03T02:30:44.990Z,980.76
2022-10-03T02:31:45.027Z,980.78
2022-10-03T02:32:44.955Z,980.80
2022-10-03T02:33:44.944Z,980.81
2022-10-03T02:34:44.935Z,980.82
2022-10-03T02:35:44.930Z,980.78
2022-10-03T02:36:44.914Z,980.82
2022-10-03T02:37:44.901Z,980.81
2022-10-03T02:38:44.896Z,980.82
2022-10-03T02:39:44.881Z,980.77
2022-10-03T02:40:44.873Z,980.76
2022-10-03T02:41:44.860Z,980.75
2022-10-03T02:42:44.853Z,980.75
2022-10-03T02:43:44.840Z,980.78
2022-10-03T02:44:44.833Z,980.73
2022-10-03T02:45:44.886Z,980.73
2022-10-03T02:46:44.811Z,980.72
2022-10-03T02:47:44.799Z,980.70
2022-10-03T02:48:44.791Z,980.72
2022-10-03T02:49:44.780Z,980.74
2022-10-03T02:50:44.781Z,980.72
2022-10-03T02:51:44.758Z,980.69
2022-10-03T02:52:44.751Z,980.70
2022-10-03T02:53:44.738Z,980.75
2022-10-03T02:54:44.729Z,980.75
2022-10-03T02:55:44.717Z,980.73
2022-10-03T02:56:44.708Z,980.76
2022-10-03T02:57:44.697Z,980.78
2022-10-03T02:58:44.701Z,980.77
2022-10-03T02:59:44.675Z,980.78
2022-10-03T03:00:44.760Z,980.80
2022-10-03T03:01:44.739Z,980.79
2022-10-03T03:02:44.656Z,980.82
2022-10-03T03:03:44.633Z,980.80
2022-10-03T03:04:44.625Z,980.77
2022-10-03T03:05:44.625Z,980.76
2022-10-03T03:06:44.616Z,980.83
2022-10-03T03:07:44.612Z,980.80
2022-10-03T03:08:44.608Z,980.82
2022-10-03T03:09:44.575Z,980.82
2022-10-03T03:10:44.564Z,980.82
2022-10-03T03:11:44.547Z,980.86
2022-10-03T03:12:44.540Z,980.83
2022-10-03T03:13:44.528Z,980.88
2022-10-03T03:14:44.520Z,980.83
2022-10-03T03:15:44.507Z,980.83
2022-10-03T03:16:44.618Z,980.87
2022-10-03T03:17:44.508Z,980.80
2022-10-03T03:18:44.478Z,980.82
2022-10-03T03:19:44.461Z,980.81
2022-10-03T03:20:44.454Z,980.79
2022-10-03T03:21:44.441Z,980.78
2022-10-03T03:22:44.433Z,980.76
2022-10-03T03:23:44.423Z,980.77
2022-10-03T03:24:44.412Z,980.77
2022-10-03T03:25:44.404Z,980.79
2022-10-03T03:26:44.390Z,980.76
2022-10-03T03:27:44.376Z,980.80
2022-10-03T03:28:44.368Z,980.80
2022-10-03T03:29:44.357Z,980.83
2022-10-03T03:30:44.348Z,980.80
2022-10-03T03:31:44.630Z,980.83
2022-10-03T03:32:44.328Z,980.78
2022-10-03T03:33:44.343Z,980.84
2022-10-03T03:34:44.306Z,980.82
2022-10-03T03:35:44.292Z,980.84
2022-10-03T03:36:44.281Z,980.84
2022-10-03T03:37:44.269Z,980.84
2022-10-03T03:38:44.260Z,980.85
2022-10-03T03:39:44.248Z,980.85
2022-10-03T03:40:44.239Z,980.85
2022-10-03T03:41:44.227Z,980.81
2022-10-03T03:42:44.217Z,980.84
2022-10-03T03:43:44.203Z,980.84
2022-10-03T03:44:44.196Z,980.83
2022-10-03T03:45:44.268Z,980.85
2022-10-03T03:46:44.178Z,980.86
2022-10-03T03:47:44.161Z,980.82
2022-10-03T03:48:44.151Z,980.83
2022-10-03T03:49:44.160Z,980.84
2022-10-03T03:50:44.145Z,980.84
2022-10-03T03:51:44.118Z,980.85
2022-10-03T03:52:44.108Z,980.84
2022-10-03T03:53:44.095Z,980.81
2022-10-03T03:54:44.087Z,980.79
2022-10-03T03:55:44.072Z,980.82
2022-10-03T03:56:44.065Z,980.81
2022-10-03T03:57:44.051Z,980.83
2022-10-03T03:58:44.043Z,980.85
2022-10-03T03:59:44.029Z,980.83
2022-10-03T04:00:44.052Z,980.84
2022-10-03T04:01:44.078Z,980.85
2022-10-03T04:02:44.000Z,980.83
2022-10-03T04:03:43.985Z,980.85
2022-10-03T04:04:43.987Z,980.87
2022-10-03T04:05:43.981Z,980.83
2022-10-03T04:06:43.954Z,980.81
2022-10-03T04:07:43.942Z,980.89
2022-10-03T04:08:43.934Z,980.78
2022-10-03T04:09:43.921Z,980.78
2022-10-03T04:10:43.910Z,980.83
2022-10-03T04:11:43.899Z,980.83
2022-10-03T04:12:43.885Z,980.77
2022-10-03T04:13:43.876Z,980.77
2022-10-03T04:14:43.863Z,980.85
2022-10-03T04:15:43.854Z,980.80
2022-10-03T04:16:43.929Z,980.74
2022-10-03T04:17:43.831Z,980.71
2022-10-03T04:18:43.817Z,980.69
2022-10-03T04:19:43.808Z,980.68
2022-10-03T04:20:43.797Z,980.64
2022-10-03T04:21:43.806Z,980.61
2022-10-03T04:22:43.772Z,980.59
2022-10-03T04:23:43.763Z,980.58
2022-10-03T04:24:43.751Z,980.62
2022-10-03T04:25:43.740Z,980.58
2022-10-03T04:26:43.727Z,980.61
2022-10-03T04:27:43.715Z,980.65
2022-10-03T04:28:43.703Z,980.66
2022-10-03T04:29:43.695Z,980.66
2022-10-03T04:30:43.683Z,980.66
2022-10-03T04:31:44.314Z,980.66
2022-10-03T04:32:43.657Z,980.64
2022-10-03T04:33:43.647Z,980.63
2022-10-03T04:34:43.634Z,980.64
2022-10-03T04:35:43.624Z,980.63
2022-10-03T04:36:43.611Z,980.60
2022-10-03T04:37:43.622Z,980.62
2022-10-03T04:38:43.587Z,980.64
2022-10-03T04:39:43.579Z,980.62
2022-10-03T04:40:43.567Z,980.63
2022-10-03T04:41:43.590Z,980.63
2022-10-03T04:42:43.543Z,980.62
2022-10-03T04:43:43.533Z,980.61
2022-10-03T04:44:43.521Z,980.60
2022-10-03T04:45:43.590Z,980.60
2022-10-03T04:46:43.498Z,980.63
2022-10-03T04:47:43.495Z,980.61
2022-10-03T04:48:43.479Z,980.65
2022-10-03T04:49:43.467Z,980.66
2022-10-03T04:50:43.452Z,980.64
2022-10-03T04:51:43.444Z,980.66
2022-10-03T04:52:43.430Z,980.68
2022-10-03T04:53:43.439Z,980.68
2022-10-03T04:54:43.410Z,980.70
2022-10-03T04:55:43.399Z,980.67
2022-10-03T04:56:43.384Z,980.66
2022-10-03T04:57:43.377Z,980.69
2022-10-03T04:58:43.361Z,980.68
2022-10-03T04:59:43.352Z,980.71
2022-10-03T05:00:43.396Z,980.71
2022-10-03T05:01:43.333Z,980.74
2022-10-03T05:02:43.317Z,980.73
2022-10-03T05:03:43.309Z,980.68
2022-10-03T05:04:43.294Z,980.69
2022-10-03T05:05:43.287Z,980.73
2022-10-03T05:06:43.277Z,980.72
2022-10-03T05:07:43.264Z,980.69
2022-10-03T05:08:43.250Z,980.64
2022-10-03T05:09:43.274Z,980.70
2022-10-03T05:10:43.228Z,980.69
2022-10-03T05:11:43.219Z,980.73
2022-10-03T05:12:43.204Z,980.79
2022-10-03T05:13:43.197Z,980.82
2022-10-03T05:14:43.184Z,980.78
2022-10-03T05:15:43.174Z,980.74
2022-10-03T05:16:43.245Z,980.81
2022-10-03T05:17:43.155Z,980.81
2022-10-03T05:18:43.137Z,980.81
2022-10-03T05:19:43.129Z,980.80
2022-10-03T05:20:43.114Z,980.74
2022-10-03T05:21:43.106Z,980.85
2022-10-03T05:22:43.092Z,980.72
2022-10-03T05:23:43.083Z,980.79
2022-10-03T05:24:43.119Z,980.80
2022-10-03T05:25:43.081Z,980.78
2022-10-03T05:26:45.762Z,980.83
2022-10-03T05:27:43.038Z,980.79
2022-10-03T05:28:43.027Z,980.88
2022-10-03T05:29:43.015Z,980.83
2022-10-03T05:30:43.001Z,980.85
2022-10-03T05:31:43.485Z,980.88
2022-10-03T05:32:42.976Z,980.89
2022-10-03T05:33:42.968Z,980.89
2022-10-03T05:34:43.010Z,980.90
2022-10-03T05:35:42.946Z,980.86
2022-10-03T05:36:42.931Z,980.96
2022-10-03T05:37:42.922Z,980.96
2022-10-03T05:38:42.907Z,980.96
2022-10-03T05:39:42.897Z,980.95
2022-10-03T05:40:42.884Z,980.97
2022-10-03T05:41:43.071Z,980.97
2022-10-03T05:42:42.861Z,980.96
2022-10-03T05:43:42.853Z,980.99
2022-10-03T05:44:42.838Z,980.96
2022-10-03T05:45:42.876Z,981.03
2022-10-03T05:46:42.814Z,981.06
2022-10-03T05:47:42.805Z,981.04
2022-10-03T05:48:42.790Z,981.06
2022-10-03T05:49:42.787Z,981.04
2022-10-03T05:50:42.768Z,981.03
2022-10-03T05:51:43.153Z,981.04
2022-10-03T05:52:42.745Z,981.10
2022-10-03T05:53:42.736Z,981.08
2022-10-03T05:54:42.721Z,981.14
2022-10-03T05:55:42.712Z,981.19
2022-10-03T05:56:42.698Z,981.17
2022-10-03T05:57:42.707Z,981.19
2022-10-03T05:58:42.675Z,981.16
2022-10-03T05:59:42.664Z,981.20
2022-10-03T06:00:42.651Z,981.15
2022-10-03T06:01:42.703Z,981.18
2022-10-03T06:02:42.768Z,981.16
2022-10-03T06:03:42.618Z,981.15
2022-10-03T06:04:42.606Z,981.22
2022-10-03T06:05:42.597Z,981.19
2022-10-03T06:06:42.583Z,981.23
2022-10-03T06:07:42.571Z,981.25
2022-10-03T06:08:42.558Z,981.21
2022-10-03T06:09:42.547Z,981.19
2022-10-03T06:10:42.538Z,981.16
2022-10-03T06:11:42.812Z,981.14
2022-10-03T06:12:42.510Z,981.18
2022-10-03T06:13:42.523Z,981.15
2022-10-03T06:14:42.489Z,981.19
2022-10-03T06:15:42.517Z,981.22
2022-10-03T06:16:42.465Z,981.24
2022-10-03T06:17:43.387Z,981.24
2022-10-03T06:18:42.441Z,981.28
2022-10-03T06:19:42.433Z,981.27
2022-10-03T06:20:42.420Z,981.28
2022-10-03T06:21:42.567Z,981.28
2022-10-03T06:22:42.398Z,981.29
2022-10-03T06:23:42.395Z,981.30
2022-10-03T06:24:42.373Z,981.30
2022-10-03T06:25:42.363Z,981.33
2022-10-03T06:26:42.351Z,981.32
2022-10-03T06:27:42.342Z,981.37
2022-10-03T06:28:42.328Z,981.36
2022-10-03T06:29:42.338Z,981.43
2022-10-03T06:30:42.356Z,981.43
2022-10-03T06:31:42.968Z,981.40
2022-10-03T06:32:42.293Z,981.45
2022-10-03T06:33:42.272Z,981.40
2022-10-03T06:34:42.259Z,981.42
2022-10-03T06:35:42.252Z,981.51
2022-10-03T06:36:42.234Z,981.49
2022-10-03T06:37:42.226Z,981.50
2022-10-03T06:38:42.213Z,981.55
2022-10-03T06:39:42.203Z,981.53
2022-10-03T06:40:42.190Z,981.50
2022-10-03T06:41:42.665Z,981.52
2022-10-03T06:42:42.169Z,981.57
2022-10-03T06:43:42.160Z,981.59
2022-10-03T06:44:42.145Z,981.56
2022-10-03T06:45:42.153Z,981.60
2022-10-03T06:46:42.131Z,981.61
2022-10-03T06:47:42.113Z,981.62
2022-10-03T06:48:42.100Z,981.71
2022-10-03T06:49:42.089Z,981.59
2022-10-03T06:50:42.079Z,981.58
2022-10-03T06:51:42.419Z,981.64
2022-10-03T06:52:42.052Z,981.59
2022-10-03T06:53:42.059Z,981.63
2022-10-03T06:54:42.033Z,981.65
2022-10-03T06:55:42.021Z,981.62
2022-10-03T06:56:44.259Z,981.65
2022-10-03T06:57:42.000Z,981.69
2022-10-03T06:58:41.986Z,981.70
2022-10-03T06:59:41.978Z,981.75
2022-10-03T07:00:41.967Z,981.69
2022-10-03T07:01:42.598Z,981.67
2022-10-03T07:02:42.091Z,981.73
2022-10-03T07:03:41.931Z,981.72
2022-10-03T07:04:41.919Z,981.72
2022-10-03T07:05:41.913Z,981.66
2022-10-03T07:06:41.897Z,981.71
2022-10-03T07:07:41.886Z,981.70
2022-10-03T07:08:41.873Z,981.73
2022-10-03T07:09:41.865Z,981.75
2022-10-03T07:10:41.852Z,981.78
2022-10-03T07:11:42.059Z,981.76
2022-10-03T07:12:41.829Z,981.82
2022-10-03T07:13:41.821Z,981.77
2022-10-03T07:14:41.816Z,981.83
2022-10-03T07:16:05.018Z,981.83
2022-10-03T07:16:41.835Z,981.84
2022-10-03T07:17:41.795Z,981.86
2022-10-03T07:18:41.764Z,981.84
2022-10-03T07:19:41.752Z,981.79
2022-10-03T07:20:41.741Z,981.87
2022-10-03T07:21:42.125Z,981.85
2022-10-03T07:22:41.719Z,981.84
2022-10-03T07:23:41.724Z,981.89
2022-10-03T07:24:41.696Z,981.92
2022-10-03T07:25:41.688Z,981.90
2022-10-03T07:26:41.676Z,981.88
2022-10-03T07:27:41.680Z,981.95
2022-10-03T07:28:41.711Z,981.92
2022-10-03T07:29:41.644Z,981.89
2022-10-03T07:30:41.707Z,981.88
2022-10-03T07:31:41.965Z,981.91
2022-10-03T07:32:41.708Z,981.88
2022-10-03T07:33:41.621Z,981.92
2022-10-03T07:34:41.589Z,981.93
2022-10-03T07:35:41.578Z,981.88
2022-10-03T07:36:41.666Z,981.90
2022-10-03T07:37:41.557Z,981.96
2022-10-03T07:38:41.544Z,981.91
2022-10-03T07:39:41.534Z,981.97
2022-10-03T07:40:41.523Z,981.98
2022-10-03T07:41:41.847Z,982.05
2022-10-03T07:42:46.096Z,982.07
2022-10-03T07:43:41.694Z,982.13
2022-10-03T07:44:41.479Z,982.14
2022-10-03T07:45:41.470Z,982.09
2022-10-03T07:46:41.525Z,982.13
2022-10-03T07:47:41.449Z,982.12
2022-10-03T07:48:41.442Z,982.13
2022-10-03T07:49:41.446Z,982.15
2022-10-03T07:50:41.415Z,982.15
2022-10-03T07:51:41.814Z,982.15
2022-10-03T07:52:41.394Z,982.17
2022-10-03T07:53:41.385Z,982.17
2022-10-03T07:54:41.384Z,982.13
2022-10-03T07:55:41.363Z,982.16
2022-10-03T07:56:41.351Z,982.16
2022-10-03T07:57:41.343Z,982.14
2022-10-03T07:58:41.342Z,982.14
2022-10-03T07:59:41.322Z,982.19
2022-10-03T08:00:41.308Z,982.20
2022-10-03T08:01:41.719Z,982.14
2022-10-03T08:02:41.371Z,982.27
2022-10-03T08:03:41.352Z,982.21
2022-10-03T08:04:41.267Z,982.21
2022-10-03T08:05:41.280Z,982.19
2022-10-03T08:06:41.248Z,982.18
2022-10-03T08:07:41.236Z,982.26
2022-10-03T08:08:41.224Z,982.22
2022-10-03T08:09:41.221Z,982.32
2022-10-03T08:10:41.204Z,982.22
2022-10-03T08:11:41.657Z,982.30
2022-10-03T08:12:41.182Z,982.34
2022-10-03T08:13:41.174Z,982.31
2022-10-03T08:14:41.162Z,982.37
2022-10-03T08:15:41.401Z,982.32
2022-10-03T08:16:41.141Z,982.32
2022-10-03T08:17:41.133Z,982.35
2022-10-03T08:18:41.132Z,982.35
2022-10-03T08:19:41.111Z,982.33
2022-10-03T08:20:41.100Z,982.35
2022-10-03T08:21:41.457Z,982.36
2022-10-03T08:22:41.078Z,982.43
2022-10-03T08:23:41.069Z,982.40
2022-10-03T08:24:41.056Z,982.39
2022-10-03T08:25:41.045Z,982.35
2022-10-03T08:26:41.037Z,982.33
2022-10-03T08:27:41.026Z,982.40
2022-10-03T08:28:41.018Z,982.38
2022-10-03T08:29:41.008Z,982.37
2022-10-03T08:30:40.995Z,982.40
2022-10-03T08:31:41.271Z,982.44
2022-10-03T08:32:41.855Z,982.38
2022-10-03T08:33:40.962Z,982.40
2022-10-03T08:35:40.942Z,982.37
2022-10-03T08:36:40.931Z,982.38
2022-10-03T08:37:40.963Z,982.36
2022-10-03T08:38:40.912Z,982.35
2022-10-03T08:39:40.903Z,982.44
2022-10-03T08:40:40.890Z,982.40
2022-10-03T08:41:41.291Z,982.39
2022-10-03T08:42:40.868Z,982.38
2022-10-03T08:43:40.869Z,982.41
2022-10-03T08:44:40.848Z,982.44
2022-10-03T08:45:40.842Z,982.41
2022-10-03T08:46:40.919Z,982.42
2022-10-03T08:47:40.823Z,982.41
2022-10-03T08:48:40.809Z,982.43
2022-10-03T08:49:40.800Z,982.41
2022-10-03T08:50:40.790Z,982.40
2022-10-03T08:51:41.292Z,982.42
2022-10-03T08:52:40.769Z,982.43
2022-10-03T08:53:40.778Z,982.37
2022-10-03T08:54:40.749Z,982.37
2022-10-03T08:55:40.742Z,982.38
2022-10-03T08:56:40.728Z,982.38
2022-10-03T08:57:40.722Z,982.43
2022-10-03T08:58:40.711Z,982.29
2022-10-03T08:59:40.702Z,982.36
2022-10-03T09:00:40.689Z,982.34
2022-10-03T09:01:40.884Z,982.31
2022-10-03T09:02:40.723Z,982.33
2022-10-03T09:03:43.314Z,982.36
2022-10-03T09:04:40.651Z,982.32
2022-10-03T09:05:40.643Z,982.32
2022-10-03T09:06:58.654Z,982.31
2022-10-03T09:07:40.624Z,982.30
2022-10-03T09:08:40.612Z,982.25
2022-10-03T09:09:40.622Z,982.20
2022-10-03T09:10:40.594Z,982.24
2022-10-03T09:11:40.586Z,982.13
2022-10-03T09:12:40.578Z,982.16
2022-10-03T09:13:40.567Z,982.12
2022-10-03T09:14:40.562Z,982.14
2022-10-03T09:15:40.606Z,982.15
2022-10-03T09:16:40.782Z,982.14
2022-10-03T09:17:40.528Z,982.12
2022-10-03T09:18:40.519Z,982.14
2022-10-03T09:19:40.510Z,982.07
2022-10-03T09:20:40.498Z,982.06
2022-10-03T09:21:40.495Z,982.06
2022-10-03T09:22:40.481Z,982.07
2022-10-03T09:23:40.473Z,982.08
2022-10-03T09:24:40.463Z,982.09
2022-10-03T09:25:40.477Z,982.06
2022-10-03T09:26:40.866Z,982.03
2022-10-03T09:27:40.437Z,982.06
2022-10-03T09:28:40.473Z,982.04
2022-10-03T09:29:40.423Z,982.03
2022-10-03T09:30:40.408Z,982.02
2022-10-03T09:31:40.684Z,982.04
2022-10-03T09:32:40.390Z,982.08
2022-10-03T09:33:40.384Z,982.01
2022-10-03T09:34:40.372Z,981.99
2022-10-03T09:35:40.371Z,982.01
2022-10-03T09:36:40.357Z,982.02
2022-10-03T09:37:40.347Z,982.02
2022-10-03T09:38:40.343Z,982.05
2022-10-03T09:39:40.329Z,982.06
2022-10-03T09:40:40.318Z,981.98
2022-10-03T09:41:40.689Z,981.97
2022-10-03T09:42:40.302Z,981.98
2022-10-03T09:43:40.290Z,981.94
2022-10-03T09:45:40.272Z,981.93
2022-10-03T09:46:45.576Z,981.97
2022-10-03T09:47:40.254Z,981.94
2022-10-03T09:48:40.247Z,981.93
2022-10-03T09:49:40.235Z,981.93
2022-10-03T09:50:40.228Z,981.91
2022-10-03T09:51:40.546Z,981.96
2022-10-03T09:52:40.209Z,981.89
2022-10-03T09:53:40.196Z,981.92
2022-10-03T09:54:40.191Z,981.96
2022-10-03T09:55:40.178Z,981.91
2022-10-03T09:56:40.469Z,981.91
2022-10-03T09:57:40.182Z,981.89
2022-10-03T09:58:40.151Z,981.91
2022-10-03T09:59:40.142Z,981.93
2022-10-03T10:00:40.208Z,981.91
2022-10-03T10:01:40.479Z,981.86
2022-10-03T10:02:40.114Z,981.85
2022-10-03T10:03:40.168Z,981.88
2022-10-03T10:04:56.040Z,981.85
2022-10-03T10:05:40.081Z,981.84
2022-10-03T10:06:40.404Z,981.86
2022-10-03T10:07:40.063Z,981.89
2022-10-03T10:08:40.054Z,981.87
2022-10-03T10:09:40.043Z,981.86
2022-10-03T10:10:40.036Z,981.83
2022-10-03T10:11:40.024Z,981.81
2022-10-03T10:12:40.015Z,981.84
2022-10-03T10:14:03.232Z,981.83
2022-10-03T10:14:39.999Z,981.82
2022-10-03T10:15:39.999Z,981.84
2022-10-03T10:16:42.491Z,981.80
2022-10-03T10:17:39.967Z,981.82
2022-10-03T10:18:39.959Z,981.85
2022-10-03T10:19:39.946Z,981.85
2022-10-03T10:20:39.939Z,981.80
2022-10-03T10:21:39.927Z,981.77
2022-10-03T10:22:39.921Z,981.73
2022-10-03T10:23:39.908Z,981.77
2022-10-03T10:24:39.901Z,981.75
2022-10-03T10:25:39.892Z,981.77
2022-10-03T10:26:40.419Z,981.75
2022-10-03T10:27:39.871Z,981.81
2022-10-03T10:28:39.863Z,981.78
2022-10-03T10:29:39.869Z,981.76
2022-10-03T10:30:39.846Z,981.79
2022-10-03T10:31:39.878Z,981.77
2022-10-03T10:32:39.826Z,981.76
2022-10-03T10:33:39.815Z,981.75
2022-10-03T10:34:39.814Z,981.74
2022-10-03T10:35:39.897Z,981.73
2022-10-03T10:36:40.084Z,981.71
2022-10-03T10:37:42.848Z,981.68
2022-10-03T10:38:39.772Z,981.74
2022-10-03T10:39:39.759Z,981.68
2022-10-03T10:40:39.752Z,981.67
2022-10-03T10:41:40.007Z,981.65
2022-10-03T10:42:39.736Z,981.66
2022-10-03T10:43:39.725Z,981.60
2022-10-03T10:44:39.718Z,981.64
2022-10-03T10:45:39.725Z,981.68
2022-10-03T10:46:40.183Z,981.53
2022-10-03T10:47:39.689Z,981.60
2022-10-03T10:48:39.682Z,981.61
2022-10-03T10:49:39.673Z,981.64
2022-10-03T10:50:39.667Z,981.56
2022-10-03T10:51:39.654Z,981.62
2022-10-03T10:52:39.649Z,981.61
2022-10-03T10:53:39.639Z,981.62
2022-10-03T10:54:39.632Z,981.55
2022-10-03T10:55:42.881Z,981.52
2022-10-03T10:56:39.988Z,981.56
2022-10-03T10:57:39.605Z,981.64
2022-10-03T10:58:39.602Z,981.60
2022-10-03T10:59:39.589Z,981.57
2022-10-03T11:00:39.670Z,981.60
2022-10-03T11:01:43.883Z,981.59
2022-10-03T11:02:39.569Z,981.60
2022-10-03T11:03:39.612Z,981.54
2022-10-03T11:04:39.617Z,981.59
2022-10-03T11:05:39.545Z,981.68
2022-10-03T11:06:40.096Z,981.59
2022-10-03T11:07:39.524Z,981.61
2022-10-03T11:08:39.528Z,981.59
2022-10-03T11:09:39.509Z,981.60
2022-10-03T11:10:39.504Z,981.57
2022-10-03T11:11:39.493Z,981.56
2022-10-03T11:12:39.487Z,981.56
2022-10-03T11:13:39.477Z,981.58
2022-10-03T11:14:39.470Z,981.56
2022-10-03T11:15:39.461Z,981.58
2022-10-03T11:16:39.851Z,981.53
2022-10-03T11:17:39.462Z,981.54
2022-10-03T11:18:39.440Z,981.51
2022-10-03T11:19:39.428Z,981.57
2022-10-03T11:20:39.422Z,981.58
2022-10-03T11:21:39.414Z,981.54
2022-10-03T11:22:39.421Z,981.59
2022-10-03T11:23:39.396Z,981.59
2022-10-03T11:24:39.391Z,981.58
2022-10-03T11:25:39.381Z,981.57
2022-10-03T11:26:39.773Z,981.54
2022-10-03T11:27:39.364Z,981.59
2022-10-03T11:28:39.435Z,981.58
2022-10-03T11:29:39.350Z,981.63
2022-10-03T11:30:39.345Z,981.65
2022-10-03T11:31:39.379Z,981.65
2022-10-03T11:32:39.329Z,981.66
2022-10-03T11:33:39.340Z,981.65
2022-10-03T11:34:39.314Z,981.70
2022-10-03T11:35:42.929Z,981.66
2022-10-03T11:36:39.614Z,981.70
2022-10-03T11:37:39.289Z,981.68
2022-10-03T11:38:39.283Z,981.66
2022-10-03T11:39:39.272Z,981.58
2022-10-03T11:40:39.267Z,981.57
2022-10-03T11:41:39.259Z,981.62
2022-10-03T11:42:39.251Z,981.61
2022-10-03T11:43:39.241Z,981.62
2022-10-03T11:44:39.241Z,981.54
2022-10-03T11:45:39.276Z,981.55
2022-10-03T11:46:39.766Z,981.52
2022-10-03T11:47:39.223Z,981.51
2022-10-03T11:48:39.203Z,981.51
2022-10-03T11:49:39.220Z,981.54
2022-10-03T11:50:39.190Z,981.51
2022-10-03T11:51:39.183Z,981.54
2022-10-03T11:52:39.172Z,981.59
2022-10-03T11:53:39.162Z,981.51
2022-10-03T11:54:39.158Z,981.49
2022-10-03T11:55:39.146Z,981.51
2022-10-03T11:56:39.736Z,981.47
2022-10-03T11:57:39.134Z,981.45
2022-10-03T11:58:39.150Z,981.56
2022-10-03T11:59:39.113Z,981.46
2022-10-03T12:00:39.124Z,981.48
2022-10-03T12:01:39.433Z,981.54
2022-10-03T12:02:39.228Z,981.55
2022-10-03T12:03:39.150Z,981.54
2022-10-03T12:04:39.076Z,981.50
2022-10-03T12:05:39.302Z,981.55
2022-10-03T12:06:39.255Z,981.54
2022-10-03T12:07:39.047Z,981.53
2022-10-03T12:08:39.043Z,981.51
2022-10-03T12:09:39.032Z,981.49
2022-10-03T12:10:39.027Z,981.52
2022-10-03T12:11:39.310Z,981.49
2022-10-03T12:12:39.008Z,981.51
2022-10-03T12:13:38.999Z,981.54
2022-10-03T12:14:38.994Z,981.55
2022-10-03T12:15:38.981Z,981.55
2022-10-03T12:16:39.088Z,981.53
2022-10-03T12:17:38.966Z,981.54
2022-10-03T12:18:38.958Z,981.51
2022-10-03T12:19:38.948Z,981.50
2022-10-03T12:20:38.943Z,981.53
2022-10-03T12:21:39.335Z,981.57
2022-10-03T12:22:38.930Z,981.57
2022-10-03T12:23:38.918Z,981.59
2022-10-03T12:24:38.909Z,981.56
2022-10-03T12:25:38.902Z,981.53
2022-10-03T12:26:38.895Z,981.53
2022-10-03T12:27:38.885Z,981.57
2022-10-03T12:28:38.918Z,981.59
2022-10-03T12:29:38.868Z,981.60
2022-10-03T12:30:38.863Z,981.63